sensor_id;sensor_type;location;lat;lon;timestamp;temperature;humidity
70475;DHT22;57944;48.722;9.316;2022-12-29T00:00:43;7.10;99.90
70475;DHT22;57944;48.722;9.316;2022-12-29T00:03:13;7.30;99.90
70475;DHT22;57944;48.722;9.316;2022-12-29T00:05:54;7.40;99.90
70475;DHT22;57944;48.722;9.316;2022-12-29T00:08:24;7.50;99.90
70475;DHT22;57944;48.722;9.316;2022-12-29T00:11:07;7.60;99.90
70475;DHT22;57944;48.722;9.316;2022-12-29T00:13:38;7.60;99.90
70475;DHT22;57944;48.722;9.316;2022-12-29T00:16:21;7.70;99.90
70475;DHT22;57944;48.722;9.316;2022-12-29T00:18:51;7.70;99.90
70475;DHT22;57944;48.722;9.316;2022-12-29T00:21:24;7.70;99.90
70475;DHT22;57944;48.722;9.316;2022-12-29T00:24:12;7.70;99.90
70475;DHT22;57944;48.722;9.316;2022-12-29T00:27:03;7.80;99.90
70475;DHT22;57944;48.722;9.316;2022-12-29T00:29:52;7.90;99.90
70475;DHT22;57944;48.722;9.316;2022-12-29T00:32:35;7.90;99.90
70475;DHT22;57944;48.722;9.316;2022-12-29T00:35:23;7.80;99.90
70475;DHT22;57944;48.722;9.316;2022-12-29T00:38:01;7.70;99.90
70475;DHT22;57944;48.722;9.316;2022-12-29T00:40:46;7.60;99.90
70475;DHT22;57944;48.722;9.316;2022-12-29T00:43:29;7.50;99.90
70475;DHT22;57944;48.722;9.316;2022-12-29T00:46:12;7.50;99.90
70475;DHT22;57944;48.722;9.316;2022-12-29T00:48:46;7.30;99.90
70475;DHT22;57944;48.722;9.316;2022-12-29T00:51:29;7.30;99.90
70475;DHT22;57944;48.722;9.316;2022-12-29T00:54:01;7.20;99.90
70475;DHT22;57944;48.722;9.316;2022-12-29T00:56:33;7.10;99.90
70475;DHT22;57944;48.722;9.316;2022-12-29T00:59:03;7.10;99.90
70475;DHT22;57944;48.722;9.316;2022-12-29T01:01:36;7.10;99.90
70475;DHT22;57944;48.722;9.316;2022-12-29T01:04:08;7.00;99.90
70475;DHT22;57944;48.722;9.316;2022-12-29T01:06:40;7.00;99.90
70475;DHT22;57944;48.722;9.316;2022-12-29T01:09:12;7.10;99.90
70475;DHT22;57944;48.722;9.316;2022-12-29T01:11:56;7.10;99.90
70475;DHT22;57944;48.722;9.316;2022-12-29T01:14:27;7.00;99.90
70475;DHT22;57944;48.722;9.316;2022-12-29T01:16:57;7.00;99.90
70475;DHT22;57944;48.722;9.316;2022-12-29T01:19:28;7.00;99.90
70475;DHT22;57944;48.722;9.316;2022-12-29T01:21:58;6.90;99.90
70475;DHT22;57944;48.722;9.316;2022-12-29T01:24:31;6.90;99.90
70475;DHT22;57944;48.722;9.316;2022-12-29T01:27:00;6.90;99.90
70475;DHT22;57944;48.722;9.316;2022-12-29T01:29:30;7.00;99.90
70475;DHT22;57944;48.722;9.316;2022-12-29T01:32:00;7.10;99.90
70475;DHT22;57944;48.722;9.316;2022-12-29T01:34:30;7.30;99.90
70475;DHT22;57944;48.722;9.316;2022-12-29T01:37:02;7.40;99.90
70475;DHT22;57944;48.722;9.316;2022-12-29T01:39:35;7.50;99.90
70475;DHT22;57944;48.722;9.316;2022-12-29T01:42:08;7.60;99.90
70475;DHT22;57944;48.722;9.316;2022-12-29T01:44:54;7.70;99.90
70475;DHT22;57944;48.722;9.316;2022-12-29T01:47:36;7.80;99.90
70475;DHT22;57944;48.722;9.316;2022-12-29T01:50:13;7.90;99.90
70475;DHT22;57944;48.722;9.316;2022-12-29T01:52:51;8.00;99.90
70475;DHT22;57944;48.722;9.316;2022-12-29T01:55:30;8.10;99.90
70475;DHT22;57944;48.722;9.316;2022-12-29T01:58:05;8.10;99.90
70475;DHT22;57944;48.722;9.316;2022-12-29T02:00:36;8.20;99.90
70475;DHT22;57944;48.722;9.316;2022-12-29T02:03:07;8.20;99.90
70475;DHT22;57944;48.722;9.316;2022-12-29T02:05:43;8.20;99.90
70475;DHT22;57944;48.722;9.316;2022-12-29T02:08:18;8.30;99.90
70475;DHT22;57944;48.722;9.316;2022-12-29T02:10:53;8.20;99.90
70475;DHT22;57944;48.722;9.316;2022-12-29T02:13:24;8.20;99.90
70475;DHT22;57944;48.722;9.316;2022-12-29T02:16:02;8.30;99.90
70475;DHT22;57944;48.722;9.316;2022-12-29T02:18:50;8.30;99.90
70475;DHT22;57944;48.722;9.316;2022-12-29T02:25:15;8.10;99.90
70475;DHT22;57944;48.722;9.316;2022-12-29T02:28:22;8.10;99.90
70475;DHT22;57944;48.722;9.316;2022-12-29T02:31:17;8.00;99.90
70475;DHT22;57944;48.722;9.316;2022-12-29T02:34:03;8.00;99.90
70475;DHT22;57944;48.722;9.316;2022-12-29T02:36:49;8.00;99.90
70475;DHT22;57944;48.722;9.316;2022-12-29T02:39:32;8.00;99.90
70475;DHT22;57944;48.722;9.316;2022-12-29T02:42:12;8.10;99.90
70475;DHT22;57944;48.722;9.316;2022-12-29T02:44:54;8.00;99.90
70475;DHT22;57944;48.722;9.316;2022-12-29T02:47:36;7.90;99.90
70475;DHT22;57944;48.722;9.316;2022-12-29T02:50:17;7.90;99.90
70475;DHT22;57944;48.722;9.316;2022-12-29T02:52:53;7.80;99.90
70475;DHT22;57944;48.722;9.316;2022-12-29T02:55:28;8.00;99.90
70475;DHT22;57944;48.722;9.316;2022-12-29T02:58:17;8.20;99.90
70475;DHT22;57944;48.722;9.316;2022-12-29T03:00:57;8.40;99.90
70475;DHT22;57944;48.722;9.316;2022-12-29T03:03:49;8.70;99.90
70475;DHT22;57944;48.722;9.316;2022-12-29T03:06:37;8.90;99.90
70475;DHT22;57944;48.722;9.316;2022-12-29T03:09:26;9.00;99.90
70475;DHT22;57944;48.722;9.316;2022-12-29T03:12:14;9.10;99.90
70475;DHT22;57944;48.722;9.316;2022-12-29T03:15:11;9.30;99.90
70475;DHT22;57944;48.722;9.316;2022-12-29T03:18:02;9.40;99.90
70475;DHT22;57944;48.722;9.316;2022-12-29T03:20:39;9.50;99.90
70475;DHT22;57944;48.722;9.316;2022-12-29T03:23:15;9.50;99.90
70475;DHT22;57944;48.722;9.316;2022-12-29T03:25:51;9.50;99.90
70475;DHT22;57944;48.722;9.316;2022-12-29T03:28:29;9.50;99.90
70475;DHT22;57944;48.722;9.316;2022-12-29T03:31:04;9.50;99.90
70475;DHT22;57944;48.722;9.316;2022-12-29T03:33:40;9.50;99.90
70475;DHT22;57944;48.722;9.316;2022-12-29T03:36:20;9.30;99.90
70475;DHT22;57944;48.722;9.316;2022-12-29T03:39:01;9.30;99.90
70475;DHT22;57944;48.722;9.316;2022-12-29T03:41:40;9.30;99.90
70475;DHT22;57944;48.722;9.316;2022-12-29T03:44:14;9.20;99.90
70475;DHT22;57944;48.722;9.316;2022-12-29T03:46:45;9.20;99.90
70475;DHT22;57944;48.722;9.316;2022-12-29T03:49:15;9.30;99.90
70475;DHT22;57944;48.722;9.316;2022-12-29T03:51:47;9.40;99.90
70475;DHT22;57944;48.722;9.316;2022-12-29T03:54:18;9.50;99.90
70475;DHT22;57944;48.722;9.316;2022-12-29T03:56:49;9.50;99.90
70475;DHT22;57944;48.722;9.316;2022-12-29T03:59:29;9.50;99.90
70475;DHT22;57944;48.722;9.316;2022-12-29T04:02:00;9.50;99.90
70475;DHT22;57944;48.722;9.316;2022-12-29T04:04:31;9.50;99.90
70475;DHT22;57944;48.722;9.316;2022-12-29T04:07:04;9.50;99.90
70475;DHT22;57944;48.722;9.316;2022-12-29T04:09:34;9.50;99.90
70475;DHT22;57944;48.722;9.316;2022-12-29T04:12:06;9.50;99.90
70475;DHT22;57944;48.722;9.316;2022-12-29T04:14:36;9.30;99.90
70475;DHT22;57944;48.722;9.316;2022-12-29T04:17:06;9.20;99.90
70475;DHT22;57944;48.722;9.316;2022-12-29T04:19:37;9.00;99.90
70475;DHT22;57944;48.722;9.316;2022-12-29T04:22:11;8.90;99.90
70475;DHT22;57944;48.722;9.316;2022-12-29T04:24:41;8.80;99.90
70475;DHT22;57944;48.722;9.316;2022-12-29T04:27:11;8.80;99.90
70475;DHT22;57944;48.722;9.316;2022-12-29T04:30:02;8.70;99.90
70475;DHT22;57944;48.722;9.316;2022-12-29T04:32:49;8.70;99.90
70475;DHT22;57944;48.722;9.316;2022-12-29T04:35:19;8.50;99.90
70475;DHT22;57944;48.722;9.316;2022-12-29T04:37:52;8.30;99.90
70475;DHT22;57944;48.722;9.316;2022-12-29T04:40:22;8.20;99.90
70475;DHT22;57944;48.722;9.316;2022-12-29T04:42:53;8.20;99.90
70475;DHT22;57944;48.722;9.316;2022-12-29T04:45:24;8.30;99.90
70475;DHT22;57944;48.722;9.316;2022-12-29T04:48:08;8.30;99.90
70475;DHT22;57944;48.722;9.316;2022-12-29T04:50:58;8.40;99.90
70475;DHT22;57944;48.722;9.316;2022-12-29T04:53:37;8.30;99.90
70475;DHT22;57944;48.722;9.316;2022-12-29T04:56:07;8.20;99.90
70475;DHT22;57944;48.722;9.316;2022-12-29T04:58:38;8.20;99.90
70475;DHT22;57944;48.722;9.316;2022-12-29T05:01:08;8.10;99.90
70475;DHT22;57944;48.722;9.316;2022-12-29T05:03:39;8.00;99.90
70475;DHT22;57944;48.722;9.316;2022-12-29T05:06:10;7.90;99.90
70475;DHT22;57944;48.722;9.316;2022-12-29T05:08:44;7.90;99.90
70475;DHT22;57944;48.722;9.316;2022-12-29T05:11:14;7.70;99.90
70475;DHT22;57944;48.722;9.316;2022-12-29T05:13:47;7.80;99.90
70475;DHT22;57944;48.722;9.316;2022-12-29T05:16:17;7.80;99.90
70475;DHT22;57944;48.722;9.316;2022-12-29T05:18:47;8.10;99.90
70475;DHT22;57944;48.722;9.316;2022-12-29T05:21:17;8.30;99.90
70475;DHT22;57944;48.722;9.316;2022-12-29T05:23:50;8.40;99.90
70475;DHT22;57944;48.722;9.316;2022-12-29T05:26:21;8.40;99.90
70475;DHT22;57944;48.722;9.316;2022-12-29T05:28:59;8.50;99.90
70475;DHT22;57944;48.722;9.316;2022-12-29T05:31:29;8.50;99.90
70475;DHT22;57944;48.722;9.316;2022-12-29T05:33:59;8.60;99.90
70475;DHT22;57944;48.722;9.316;2022-12-29T05:36:29;8.70;99.90
70475;DHT22;57944;48.722;9.316;2022-12-29T05:39:07;8.50;99.90
70475;DHT22;57944;48.722;9.316;2022-12-29T05:41:37;8.50;99.90
70475;DHT22;57944;48.722;9.316;2022-12-29T05:44:24;8.50;99.90
70475;DHT22;57944;48.722;9.316;2022-12-29T05:47:20;8.50;99.90
70475;DHT22;57944;48.722;9.316;2022-12-29T05:50:11;8.40;99.90
70475;DHT22;57944;48.722;9.316;2022-12-29T05:53:01;8.50;99.90
70475;DHT22;57944;48.722;9.316;2022-12-29T05:55:34;8.60;99.90
70475;DHT22;57944;48.722;9.316;2022-12-29T05:58:11;8.70;99.90
70475;DHT22;57944;48.722;9.316;2022-12-29T06:00:41;8.70;99.90
70475;DHT22;57944;48.722;9.316;2022-12-29T06:03:12;8.60;99.90
70475;DHT22;57944;48.722;9.316;2022-12-29T06:05:44;8.60;99.90
70475;DHT22;57944;48.722;9.316;2022-12-29T06:08:16;8.70;99.90
70475;DHT22;57944;48.722;9.316;2022-12-29T06:10:50;8.90;99.90
70475;DHT22;57944;48.722;9.316;2022-12-29T06:13:20;9.00;99.90
70475;DHT22;57944;48.722;9.316;2022-12-29T06:15:51;9.00;99.90
70475;DHT22;57944;48.722;9.316;2022-12-29T06:18:22;9.10;99.90
70475;DHT22;57944;48.722;9.316;2022-12-29T06:20:52;9.00;99.90
70475;DHT22;57944;48.722;9.316;2022-12-29T06:23:23;9.10;99.90
70475;DHT22;57944;48.722;9.316;2022-12-29T06:25:56;9.20;99.90
70475;DHT22;57944;48.722;9.316;2022-12-29T06:28:26;9.20;99.90
70475;DHT22;57944;48.722;9.316;2022-12-29T06:30:57;9.30;99.90
70475;DHT22;57944;48.722;9.316;2022-12-29T06:33:29;9.20;99.90
70475;DHT22;57944;48.722;9.316;2022-12-29T06:35:59;9.20;99.90
70475;DHT22;57944;48.722;9.316;2022-12-29T06:38:30;9.10;99.90
70475;DHT22;57944;48.722;9.316;2022-12-29T06:41:04;8.90;99.90
70475;DHT22;57944;48.722;9.316;2022-12-29T06:43:34;8.90;99.90
70475;DHT22;57944;48.722;9.316;2022-12-29T06:46:28;9.00;99.90
70475;DHT22;57944;48.722;9.316;2022-12-29T06:48:58;9.00;99.90
70475;DHT22;57944;48.722;9.316;2022-12-29T06:51:28;9.10;99.90
70475;DHT22;57944;48.722;9.316;2022-12-29T06:53:58;9.20;99.90
70475;DHT22;57944;48.722;9.316;2022-12-29T06:56:31;9.20;99.90
70475;DHT22;57944;48.722;9.316;2022-12-29T06:59:01;9.30;99.90
70475;DHT22;57944;48.722;9.316;2022-12-29T07:01:31;9.40;99.90
70475;DHT22;57944;48.722;9.316;2022-12-29T07:04:03;9.40;99.90
70475;DHT22;57944;48.722;9.316;2022-12-29T07:06:33;9.30;99.90
70475;DHT22;57944;48.722;9.316;2022-12-29T07:09:03;9.30;99.90
70475;DHT22;57944;48.722;9.316;2022-12-29T07:11:36;9.10;99.90
70475;DHT22;57944;48.722;9.316;2022-12-29T07:14:06;9.00;99.90
70475;DHT22;57944;48.722;9.316;2022-12-29T07:16:36;8.80;99.90
70475;DHT22;57944;48.722;9.316;2022-12-29T07:19:07;8.70;99.90
70475;DHT22;57944;48.722;9.316;2022-12-29T07:21:37;8.90;99.90
70475;DHT22;57944;48.722;9.316;2022-12-29T07:24:13;9.00;99.90
70475;DHT22;57944;48.722;9.316;2022-12-29T07:26:46;9.10;99.90
70475;DHT22;57944;48.722;9.316;2022-12-29T07:29:16;9.10;99.90
70475;DHT22;57944;48.722;9.316;2022-12-29T07:31:46;9.00;99.90
70475;DHT22;57944;48.722;9.316;2022-12-29T07:34:16;9.00;99.90
70475;DHT22;57944;48.722;9.316;2022-12-29T07:36:46;9.10;99.90
70475;DHT22;57944;48.722;9.316;2022-12-29T07:39:16;9.00;99.90
70475;DHT22;57944;48.722;9.316;2022-12-29T07:41:49;9.00;99.90
70475;DHT22;57944;48.722;9.316;2022-12-29T07:44:22;9.10;99.90
70475;DHT22;57944;48.722;9.316;2022-12-29T07:46:52;9.20;99.90
70475;DHT22;57944;48.722;9.316;2022-12-29T07:49:24;9.30;99.90
70475;DHT22;57944;48.722;9.316;2022-12-29T07:51:54;9.30;99.90
70475;DHT22;57944;48.722;9.316;2022-12-29T07:54:24;9.40;99.90
70475;DHT22;57944;48.722;9.316;2022-12-29T07:56:57;9.40;99.90
70475;DHT22;57944;48.722;9.316;2022-12-29T07:59:27;9.40;99.90
70475;DHT22;57944;48.722;9.316;2022-12-29T08:01:57;9.60;99.90
70475;DHT22;57944;48.722;9.316;2022-12-29T08:04:28;9.80;99.90
70475;DHT22;57944;48.722;9.316;2022-12-29T08:06:58;10.00;99.90
70475;DHT22;57944;48.722;9.316;2022-12-29T08:09:28;10.20;99.90
70475;DHT22;57944;48.722;9.316;2022-12-29T08:12:01;10.30;99.90
70475;DHT22;57944;48.722;9.316;2022-12-29T08:14:31;10.40;99.90
70475;DHT22;57944;48.722;9.316;2022-12-29T08:17:01;10.60;99.90
70475;DHT22;57944;48.722;9.316;2022-12-29T08:19:31;10.70;99.90
70475;DHT22;57944;48.722;9.316;2022-12-29T08:22:02;10.80;99.90
70475;DHT22;57944;48.722;9.316;2022-12-29T08:24:35;10.80;99.90
70475;DHT22;57944;48.722;9.316;2022-12-29T08:27:07;11.00;99.90
70475;DHT22;57944;48.722;9.316;2022-12-29T08:29:46;11.00;99.90
70475;DHT22;57944;48.722;9.316;2022-12-29T08:32:17;11.30;99.90
70475;DHT22;57944;48.722;9.316;2022-12-29T08:34:47;11.30;99.90
70475;DHT22;57944;48.722;9.316;2022-12-29T08:37:17;11.30;99.90
70475;DHT22;57944;48.722;9.316;2022-12-29T08:39:56;11.50;99.90
70475;DHT22;57944;48.722;9.316;2022-12-29T08:42:33;11.50;99.90
70475;DHT22;57944;48.722;9.316;2022-12-29T08:45:04;11.70;99.90
70475;DHT22;57944;48.722;9.316;2022-12-29T08:47:35;11.90;99.90
70475;DHT22;57944;48.722;9.316;2022-12-29T08:50:06;11.90;99.90
70475;DHT22;57944;48.722;9.316;2022-12-29T08:52:37;11.90;99.90
70475;DHT22;57944;48.722;9.316;2022-12-29T08:55:08;11.90;99.90
70475;DHT22;57944;48.722;9.316;2022-12-29T08:57:41;12.00;99.90
70475;DHT22;57944;48.722;9.316;2022-12-29T09:00:19;12.00;99.90
70475;DHT22;57944;48.722;9.316;2022-12-29T09:02:50;12.10;99.90
70475;DHT22;57944;48.722;9.316;2022-12-29T09:05:21;12.10;99.90
70475;DHT22;57944;48.722;9.316;2022-12-29T09:07:51;12.20;99.90
70475;DHT22;57944;48.722;9.316;2022-12-29T09:10:21;12.00;99.90
70475;DHT22;57944;48.722;9.316;2022-12-29T09:12:54;12.00;99.90
70475;DHT22;57944;48.722;9.316;2022-12-29T09:15:24;11.90;99.90
70475;DHT22;57944;48.722;9.316;2022-12-29T09:17:54;11.90;99.90
70475;DHT22;57944;48.722;9.316;2022-12-29T09:20:25;11.90;99.90
70475;DHT22;57944;48.722;9.316;2022-12-29T09:22:55;11.90;99.90
70475;DHT22;57944;48.722;9.316;2022-12-29T09:25:25;11.90;99.90
70475;DHT22;57944;48.722;9.316;2022-12-29T09:27:58;12.00;99.90
70475;DHT22;57944;48.722;9.316;2022-12-29T09:30:31;12.10;99.90
70475;DHT22;57944;48.722;9.316;2022-12-29T09:33:01;12.20;99.90
70475;DHT22;57944;48.722;9.316;2022-12-29T09:35:31;12.30;99.90
70475;DHT22;57944;48.722;9.316;2022-12-29T09:38:02;12.40;99.90
70475;DHT22;57944;48.722;9.316;2022-12-29T09:40:33;12.40;99.90
70475;DHT22;57944;48.722;9.316;2022-12-29T09:43:26;12.50;99.90
70475;DHT22;57944;48.722;9.316;2022-12-29T09:46:14;12.60;99.90
70475;DHT22;57944;48.722;9.316;2022-12-29T09:49:03;12.80;99.90
70475;DHT22;57944;48.722;9.316;2022-12-29T09:51:39;12.90;99.90
70475;DHT22;57944;48.722;9.316;2022-12-29T09:54:33;13.00;99.90
70475;DHT22;57944;48.722;9.316;2022-12-29T09:57:20;13.00;99.90
70475;DHT22;57944;48.722;9.316;2022-12-29T09:59:58;13.10;99.90
70475;DHT22;57944;48.722;9.316;2022-12-29T10:02:40;13.20;99.90
70475;DHT22;57944;48.722;9.316;2022-12-29T10:05:29;13.30;99.90
70475;DHT22;57944;48.722;9.316;2022-12-29T10:08:24;13.60;99.90
70475;DHT22;57944;48.722;9.316;2022-12-29T10:11:14;13.90;99.90
70475;DHT22;57944;48.722;9.316;2022-12-29T10:17:04;14.20;99.90
70475;DHT22;57944;48.722;9.316;2022-12-29T10:20:04;14.10;99.90
70475;DHT22;57944;48.722;9.316;2022-12-29T10:22:57;13.90;99.90
70475;DHT22;57944;48.722;9.316;2022-12-29T10:25:48;13.40;99.90
70475;DHT22;57944;48.722;9.316;2022-12-29T10:28:23;13.30;99.90
70475;DHT22;57944;48.722;9.316;2022-12-29T10:31:00;13.20;99.90
70475;DHT22;57944;48.722;9.316;2022-12-29T10:33:40;13.30;99.90
70475;DHT22;57944;48.722;9.316;2022-12-29T10:36:16;13.40;99.90
70475;DHT22;57944;48.722;9.316;2022-12-29T10:38:56;13.50;99.90
70475;DHT22;57944;48.722;9.316;2022-12-29T10:41:37;13.70;99.90
70475;DHT22;57944;48.722;9.316;2022-12-29T10:44:13;13.90;99.90
70475;DHT22;57944;48.722;9.316;2022-12-29T10:46:51;14.00;99.90
70475;DHT22;57944;48.722;9.316;2022-12-29T10:49:28;14.20;99.90
70475;DHT22;57944;48.722;9.316;2022-12-29T10:52:03;14.30;99.90
70475;DHT22;57944;48.722;9.316;2022-12-29T10:54:40;14.20;99.90
70475;DHT22;57944;48.722;9.316;2022-12-29T10:57:27;14.10;99.90
70475;DHT22;57944;48.722;9.316;2022-12-29T11:00:10;14.00;99.90
70475;DHT22;57944;48.722;9.316;2022-12-29T11:03:07;14.00;99.90
70475;DHT22;57944;48.722;9.316;2022-12-29T11:06:03;13.80;99.90
70475;DHT22;57944;48.722;9.316;2022-12-29T11:08:39;13.60;99.90
70475;DHT22;57944;48.722;9.316;2022-12-29T11:11:23;13.20;99.90
70475;DHT22;57944;48.722;9.316;2022-12-29T11:13:57;13.20;99.90
70475;DHT22;57944;48.722;9.316;2022-12-29T11:16:33;13.40;99.90
70475;DHT22;57944;48.722;9.316;2022-12-29T11:19:04;13.70;99.90
70475;DHT22;57944;48.722;9.316;2022-12-29T11:21:38;14.10;99.90
70475;DHT22;57944;48.722;9.316;2022-12-29T11:24:19;14.20;99.90
70475;DHT22;57944;48.722;9.316;2022-12-29T11:26:52;14.30;99.90
70475;DHT22;57944;48.722;9.316;2022-12-29T11:29:29;14.40;99.90
70475;DHT22;57944;48.722;9.316;2022-12-29T11:32:12;14.50;99.90
70475;DHT22;57944;48.722;9.316;2022-12-29T11:34:54;14.40;99.90
70475;DHT22;57944;48.722;9.316;2022-12-29T11:37:30;14.20;99.90
70475;DHT22;57944;48.722;9.316;2022-12-29T11:40:16;14.00;99.90
70475;DHT22;57944;48.722;9.316;2022-12-29T11:42:51;13.80;99.90
70475;DHT22;57944;48.722;9.316;2022-12-29T11:45:25;13.60;99.90
70475;DHT22;57944;48.722;9.316;2022-12-29T11:48:01;13.30;99.90
70475;DHT22;57944;48.722;9.316;2022-12-29T11:50:40;13.20;99.90
70475;DHT22;57944;48.722;9.316;2022-12-29T11:53:20;13.30;99.90
70475;DHT22;57944;48.722;9.316;2022-12-29T11:55:56;13.50;99.90
70475;DHT22;57944;48.722;9.316;2022-12-29T11:58:29;13.80;99.90
70475;DHT22;57944;48.722;9.316;2022-12-29T12:01:02;14.10;99.90
70475;DHT22;57944;48.722;9.316;2022-12-29T12:03:39;14.10;99.90
70475;DHT22;57944;48.722;9.316;2022-12-29T12:06:18;14.00;99.90
70475;DHT22;57944;48.722;9.316;2022-12-29T12:08:56;13.90;99.90
70475;DHT22;57944;48.722;9.316;2022-12-29T12:11:34;13.90;99.90
70475;DHT22;57944;48.722;9.316;2022-12-29T12:14:13;13.90;99.90
70475;DHT22;57944;48.722;9.316;2022-12-29T12:17:20;13.90;99.90
70475;DHT22;57944;48.722;9.316;2022-12-29T12:19:59;13.70;99.90
70475;DHT22;57944;48.722;9.316;2022-12-29T12:22:35;13.70;99.90
70475;DHT22;57944;48.722;9.316;2022-12-29T12:25:16;13.50;99.90
70475;DHT22;57944;48.722;9.316;2022-12-29T12:27:53;13.50;99.90
70475;DHT22;57944;48.722;9.316;2022-12-29T12:30:33;13.60;99.90
70475;DHT22;57944;48.722;9.316;2022-12-29T12:33:16;13.80;99.90
70475;DHT22;57944;48.722;9.316;2022-12-29T12:36:03;13.70;99.90
70475;DHT22;57944;48.722;9.316;2022-12-29T12:38:50;13.60;99.90
70475;DHT22;57944;48.722;9.316;2022-12-29T12:41:34;13.30;99.90
70475;DHT22;57944;48.722;9.316;2022-12-29T12:44:19;13.00;99.90
70475;DHT22;57944;48.722;9.316;2022-12-29T12:47:19;12.70;99.90
70475;DHT22;57944;48.722;9.316;2022-12-29T12:50:26;12.60;99.90
70475;DHT22;57944;48.722;9.316;2022-12-29T12:56:41;12.30;99.90
70475;DHT22;57944;48.722;9.316;2022-12-29T12:59:35;12.20;99.90
70475;DHT22;57944;48.722;9.316;2022-12-29T13:02:22;12.20;99.90
70475;DHT22;57944;48.722;9.316;2022-12-29T13:05:22;12.30;99.90
70475;DHT22;57944;48.722;9.316;2022-12-29T13:08:17;12.50;99.90
70475;DHT22;57944;48.722;9.316;2022-12-29T13:11:10;12.60;99.90
70475;DHT22;57944;48.722;9.316;2022-12-29T13:14:12;12.60;99.90
70475;DHT22;57944;48.722;9.316;2022-12-29T13:16:58;12.70;99.90
70475;DHT22;57944;48.722;9.316;2022-12-29T13:19:41;12.70;99.90
70475;DHT22;57944;48.722;9.316;2022-12-29T13:22:20;12.50;99.90
70475;DHT22;57944;48.722;9.316;2022-12-29T13:25:13;12.60;99.90
70475;DHT22;57944;48.722;9.316;2022-12-29T13:28:00;12.70;99.90
70475;DHT22;57944;48.722;9.316;2022-12-29T13:30:40;12.70;99.90
70475;DHT22;57944;48.722;9.316;2022-12-29T13:33:23;12.60;99.90
70475;DHT22;57944;48.722;9.316;2022-12-29T13:36:05;12.60;99.90
70475;DHT22;57944;48.722;9.316;2022-12-29T13:38:43;12.60;99.90
70475;DHT22;57944;48.722;9.316;2022-12-29T13:41:21;12.60;99.90
70475;DHT22;57944;48.722;9.316;2022-12-29T13:43:57;12.50;99.90
70475;DHT22;57944;48.722;9.316;2022-12-29T13:46:37;12.70;99.90
70475;DHT22;57944;48.722;9.316;2022-12-29T13:49:17;12.80;99.90
70475;DHT22;57944;48.722;9.316;2022-12-29T13:51:50;12.80;99.90
70475;DHT22;57944;48.722;9.316;2022-12-29T13:54:30;12.90;99.90
70475;DHT22;57944;48.722;9.316;2022-12-29T13:57:12;13.00;99.90
70475;DHT22;57944;48.722;9.316;2022-12-29T13:59:57;13.00;99.90
70475;DHT22;57944;48.722;9.316;2022-12-29T14:02:50;13.00;99.90
70475;DHT22;57944;48.722;9.316;2022-12-29T14:05:45;13.00;99.90
70475;DHT22;57944;48.722;9.316;2022-12-29T14:08:34;13.10;99.90
70475;DHT22;57944;48.722;9.316;2022-12-29T14:11:07;13.10;99.90
70475;DHT22;57944;48.722;9.316;2022-12-29T14:13:41;13.20;99.90
70475;DHT22;57944;48.722;9.316;2022-12-29T14:16:28;13.20;99.90
70475;DHT22;57944;48.722;9.316;2022-12-29T14:19:12;13.20;99.90
70475;DHT22;57944;48.722;9.316;2022-12-29T14:21:54;13.00;99.90
70475;DHT22;57944;48.722;9.316;2022-12-29T14:24:38;12.80;99.90
70475;DHT22;57944;48.722;9.316;2022-12-29T14:33:19;12.20;99.90
70475;DHT22;57944;48.722;9.316;2022-12-29T14:35:54;12.10;99.90
70475;DHT22;57944;48.722;9.316;2022-12-29T14:38:29;12.10;99.90
70475;DHT22;57944;48.722;9.316;2022-12-29T14:41:16;12.10;99.90
70475;DHT22;57944;48.722;9.316;2022-12-29T14:44:09;12.10;99.90
70475;DHT22;57944;48.722;9.316;2022-12-29T14:46:54;12.10;99.90
70475;DHT22;57944;48.722;9.316;2022-12-29T14:49:29;12.10;99.90
70475;DHT22;57944;48.722;9.316;2022-12-29T14:52:15;11.90;99.90
70475;DHT22;57944;48.722;9.316;2022-12-29T14:54:53;11.70;99.90
70475;DHT22;57944;48.722;9.316;2022-12-29T14:57:36;11.50;99.90
70475;DHT22;57944;48.722;9.316;2022-12-29T15:00:21;11.30;99.90
70475;DHT22;57944;48.722;9.316;2022-12-29T15:03:03;11.20;99.90
70475;DHT22;57944;48.722;9.316;2022-12-29T15:05:40;11.10;99.90
70475;DHT22;57944;48.722;9.316;2022-12-29T15:08:18;11.00;99.90
70475;DHT22;57944;48.722;9.316;2022-12-29T15:10:54;10.90;99.90
70475;DHT22;57944;48.722;9.316;2022-12-29T15:13:34;10.70;99.90
70475;DHT22;57944;48.722;9.316;2022-12-29T15:16:21;10.60;99.90
70475;DHT22;57944;48.722;9.316;2022-12-29T15:18:53;10.60;99.90
70475;DHT22;57944;48.722;9.316;2022-12-29T15:21:25;10.40;99.90
70475;DHT22;57944;48.722;9.316;2022-12-29T15:24:00;10.30;99.90
70475;DHT22;57944;48.722;9.316;2022-12-29T15:26:37;10.10;99.90
70475;DHT22;57944;48.722;9.316;2022-12-29T15:29:31;10.00;99.90
70475;DHT22;57944;48.722;9.316;2022-12-29T15:32:20;9.80;99.90
70475;DHT22;57944;48.722;9.316;2022-12-29T15:34:53;9.80;99.90
70475;DHT22;57944;48.722;9.316;2022-12-29T15:37:27;9.80;99.90
70475;DHT22;57944;48.722;9.316;2022-12-29T15:40:19;9.80;99.90
70475;DHT22;57944;48.722;9.316;2022-12-29T15:43:05;9.90;99.90
70475;DHT22;57944;48.722;9.316;2022-12-29T15:45:44;10.00;99.90
70475;DHT22;57944;48.722;9.316;2022-12-29T15:48:18;10.10;99.90
70475;DHT22;57944;48.722;9.316;2022-12-29T15:50:50;10.30;99.90
70475;DHT22;57944;48.722;9.316;2022-12-29T15:53:23;10.40;99.90
70475;DHT22;57944;48.722;9.316;2022-12-29T15:56:02;10.60;99.90
70475;DHT22;57944;48.722;9.316;2022-12-29T15:58:41;10.80;99.90
70475;DHT22;57944;48.722;9.316;2022-12-29T16:01:19;10.80;99.90
70475;DHT22;57944;48.722;9.316;2022-12-29T16:03:54;10.90;99.90
70475;DHT22;57944;48.722;9.316;2022-12-29T16:06:30;10.90;99.90
70475;DHT22;57944;48.722;9.316;2022-12-29T16:09:04;10.90;99.90
70475;DHT22;57944;48.722;9.316;2022-12-29T16:11:39;11.00;99.90
70475;DHT22;57944;48.722;9.316;2022-12-29T16:14:17;11.10;99.90
70475;DHT22;57944;48.722;9.316;2022-12-29T16:16:50;11.10;99.90
70475;DHT22;57944;48.722;9.316;2022-12-29T16:19:28;11.20;99.90
70475;DHT22;57944;48.722;9.316;2022-12-29T16:22:03;11.30;99.90
70475;DHT22;57944;48.722;9.316;2022-12-29T16:24:40;11.30;99.90
70475;DHT22;57944;48.722;9.316;2022-12-29T16:27:19;11.40;99.90
70475;DHT22;57944;48.722;9.316;2022-12-29T16:29:54;11.20;99.90
70475;DHT22;57944;48.722;9.316;2022-12-29T16:32:26;11.10;99.90
70475;DHT22;57944;48.722;9.316;2022-12-29T16:35:10;11.10;99.90
70475;DHT22;57944;48.722;9.316;2022-12-29T16:37:43;11.00;99.90
70475;DHT22;57944;48.722;9.316;2022-12-29T16:40:29;11.00;99.90
70475;DHT22;57944;48.722;9.316;2022-12-29T16:43:03;10.90;99.90
70475;DHT22;57944;48.722;9.316;2022-12-29T16:46:18;10.80;99.90
70475;DHT22;57944;48.722;9.316;2022-12-29T16:48:55;10.60;99.90
70475;DHT22;57944;48.722;9.316;2022-12-29T16:51:31;10.30;99.90
70475;DHT22;57944;48.722;9.316;2022-12-29T16:54:05;10.00;99.90
70475;DHT22;57944;48.722;9.316;2022-12-29T16:56:35;9.90;99.90
70475;DHT22;57944;48.722;9.316;2022-12-29T16:59:25;9.80;99.90